createdAt,value
2023-02-19T00:01:43.304Z,65.51
2023-02-19T00:04:18.226Z,65.60
2023-02-19T00:06:46.233Z,65.06
2023-02-19T00:09:14.498Z,66.02
2023-02-19T00:11:41.764Z,66.20
2023-02-19T00:14:08.561Z,66.92
2023-02-19T00:16:39.934Z,67.48
2023-02-19T00:19:08.641Z,67.58
2023-02-19T00:21:34.989Z,67.49
2023-02-19T00:24:04.353Z,67.88
2023-02-19T00:26:31.296Z,67.92
2023-02-19T00:28:58.411Z,67.89
2023-02-19T00:31:32.768Z,68.00
2023-02-19T00:34:04.991Z,68.17
2023-02-19T00:36:34.853Z,68.73
2023-02-19T00:39:01.433Z,68.66
2023-02-19T00:41:28.839Z,68.89
2023-02-19T00:44:03.802Z,68.38
2023-02-19T00:46:35.374Z,68.62
2023-02-19T00:49:02.040Z,68.79
2023-02-19T00:51:32.000Z,68.89
2023-02-19T00:53:58.850Z,68.91
2023-02-19T00:56:26.631Z,69.24
2023-02-19T00:58:53.415Z,68.67
2023-02-19T01:01:20.490Z,68.41
2023-02-19T01:03:47.726Z,68.85
2023-02-19T01:06:16.813Z,68.94
2023-02-19T01:08:43.908Z,69.18
2023-02-19T01:11:11.772Z,68.73
2023-02-19T01:13:38.492Z,69.05
2023-02-19T01:16:06.278Z,69.45
2023-02-19T01:18:33.518Z,69.78
2023-02-19T01:21:00.002Z,69.89
2023-02-19T01:23:26.505Z,69.73
2023-02-19T01:25:52.846Z,69.72
2023-02-19T01:28:19.184Z,69.01
2023-02-19T01:30:45.546Z,68.91
2023-02-19T01:33:11.887Z,68.98
2023-02-19T01:35:39.084Z,68.89
2023-02-19T01:38:07.321Z,68.90
2023-02-19T01:40:34.268Z,69.16
2023-02-19T01:43:00.640Z,68.61
2023-02-19T01:45:32.045Z,69.25
2023-02-19T01:48:17.253Z,70.02
2023-02-19T01:51:09.520Z,70.02
2023-02-19T01:53:44.916Z,69.94
2023-02-19T01:56:17.439Z,69.74
2023-02-19T01:58:44.853Z,70.05
2023-02-19T02:01:11.695Z,70.08
2023-02-19T02:03:40.400Z,69.98
2023-02-19T02:06:20.160Z,70.70
2023-02-19T02:09:05.926Z,70.72
2023-02-19T02:11:32.346Z,70.56
2023-02-19T02:13:58.984Z,70.65
2023-02-19T02:16:35.869Z,71.14
2023-02-19T02:19:44.178Z,71.74
2023-02-19T02:22:46.417Z,71.95
2023-02-19T02:25:33.024Z,71.97
2023-02-19T02:28:36.903Z,72.16
2023-02-19T02:31:12.161Z,72.00
2023-02-19T02:33:49.535Z,71.49
2023-02-19T02:36:27.991Z,71.74
2023-02-19T02:38:56.745Z,72.08
2023-02-19T02:41:23.174Z,71.44
2023-02-19T02:43:49.515Z,71.65
2023-02-19T02:46:22.928Z,71.19
2023-02-19T02:48:57.473Z,71.42
2023-02-19T02:51:38.625Z,71.54
2023-02-19T02:54:30.667Z,72.20
2023-02-19T02:56:59.706Z,72.02
2023-02-19T02:59:31.306Z,71.50
2023-02-19T03:02:10.803Z,72.15
2023-02-19T03:05:12.630Z,72.20
2023-02-19T03:07:45.885Z,73.39
2023-02-19T03:10:17.724Z,73.35
2023-02-19T03:13:04.507Z,73.58
2023-02-19T03:15:58.629Z,73.87
2023-02-19T03:18:48.018Z,73.22
2023-02-19T03:21:17.393Z,72.42
2023-02-19T03:24:05.601Z,71.76
2023-02-19T03:26:34.001Z,72.34
2023-02-19T03:29:21.605Z,73.50
2023-02-19T03:31:52.297Z,74.26
2023-02-19T03:34:26.910Z,74.56
2023-02-19T03:37:10.469Z,75.00
2023-02-19T03:39:44.323Z,75.29
2023-02-19T03:42:20.607Z,75.78
2023-02-19T03:45:08.004Z,75.76
2023-02-19T03:47:49.814Z,75.28
2023-02-19T03:50:54.757Z,75.29
2023-02-19T03:53:27.144Z,76.16
2023-02-19T03:56:07.549Z,76.24
2023-02-19T03:58:56.329Z,76.18
2023-02-19T04:01:30.194Z,76.31
2023-02-19T04:04:03.900Z,76.84
2023-02-19T04:06:32.768Z,77.74
2023-02-19T04:09:02.188Z,77.27
2023-02-19T04:11:31.973Z,77.29
2023-02-19T04:14:04.982Z,77.36
2023-02-19T04:16:34.584Z,78.32
2023-02-19T04:19:06.863Z,78.57
2023-02-19T04:21:34.725Z,78.64
2023-02-19T04:24:16.412Z,78.31
2023-02-19T04:26:44.606Z,79.01
2023-02-19T04:29:11.009Z,79.04
2023-02-19T04:31:38.364Z,79.07
2023-02-19T04:34:05.159Z,78.02
2023-02-19T04:36:33.177Z,77.93
2023-02-19T04:38:59.916Z,77.67
2023-02-19T04:41:26.359Z,77.81
2023-02-19T04:43:52.784Z,76.08
2023-02-19T04:46:19.223Z,75.56
2023-02-19T04:48:45.623Z,75.16
2023-02-19T04:51:12.428Z,75.02
2023-02-19T04:53:39.001Z,75.40
2023-02-19T04:56:10.754Z,74.90
2023-02-19T04:58:37.605Z,75.56
2023-02-19T05:01:04.400Z,75.25
2023-02-19T05:03:31.312Z,76.05
2023-02-19T05:05:57.889Z,75.29
2023-02-19T05:08:24.245Z,74.62
2023-02-19T05:10:50.623Z,74.40
2023-02-19T05:13:17.000Z,74.90
2023-02-19T05:15:54.401Z,74.46
2023-02-19T05:18:20.976Z,74.95
2023-02-19T05:20:47.300Z,74.55
2023-02-19T05:23:13.681Z,75.78
2023-02-19T05:25:40.062Z,76.42
2023-02-19T05:28:18.654Z,78.57
2023-02-19T05:30:50.673Z,78.88
2023-02-19T05:33:19.030Z,78.43
2023-02-19T05:35:48.812Z,78.18
2023-02-19T05:38:16.443Z,78.33
2023-02-19T05:40:43.152Z,78.98
2023-02-19T05:43:09.809Z,79.17
2023-02-19T05:45:36.266Z,78.86
2023-02-19T05:48:03.833Z,79.24
2023-02-19T05:50:32.982Z,78.83
2023-02-19T05:53:04.003Z,78.45
2023-02-19T05:55:34.398Z,77.90
2023-02-19T05:58:01.223Z,77.45
2023-02-19T06:00:27.756Z,76.49
2023-02-19T06:02:54.497Z,76.79
2023-02-19T06:05:21.001Z,76.81
2023-02-19T06:07:50.258Z,76.45
2023-02-19T06:10:17.264Z,75.21
2023-02-19T06:12:43.886Z,74.99
2023-02-19T06:15:10.309Z,73.71
2023-02-19T06:17:36.910Z,74.04
2023-02-19T06:20:03.502Z,73.97
2023-02-19T06:22:29.900Z,73.87
2023-02-19T06:24:56.250Z,73.15
2023-02-19T06:27:22.916Z,72.63
2023-02-19T06:29:49.364Z,73.06
2023-02-19T06:32:16.831Z,74.35
2023-02-19T06:34:43.225Z,75.41
2023-02-19T06:37:09.592Z,76.30
2023-02-19T06:39:36.263Z,76.19
2023-02-19T06:42:02.832Z,76.44
2023-02-19T06:44:29.154Z,76.08
2023-02-19T06:46:55.844Z,76.77
2023-02-19T06:49:22.666Z,77.29
2023-02-19T06:51:49.011Z,77.12
2023-02-19T06:54:15.332Z,76.73
2023-02-19T06:56:42.219Z,76.96
2023-02-19T06:59:12.412Z,77.02
2023-02-19T07:01:39.477Z,76.96
2023-02-19T07:04:07.552Z,76.93
2023-02-19T07:06:35.417Z,76.42
2023-02-19T07:09:03.278Z,76.42
2023-02-19T07:11:31.690Z,76.37
2023-02-19T07:14:00.259Z,75.88
2023-02-19T07:16:27.228Z,75.42
2023-02-19T07:18:56.870Z,75.60
2023-02-19T07:21:23.569Z,76.20
2023-02-19T07:23:49.925Z,75.88
2023-02-19T07:26:18.200Z,75.89
2023-02-19T07:28:45.762Z,75.69
2023-02-19T07:31:13.774Z,74.89
2023-02-19T07:33:43.782Z,74.80
2023-02-19T07:36:10.956Z,74.62
2023-02-19T07:38:37.559Z,74.78
2023-02-19T07:41:05.076Z,75.51
2023-02-19T07:43:34.273Z,75.95
2023-02-19T07:46:12.006Z,75.99
2023-02-19T07:48:39.424Z,76.00
2023-02-19T07:51:08.100Z,75.49
2023-02-19T07:53:35.630Z,76.45
2023-02-19T07:56:05.204Z,76.39
2023-02-19T07:58:32.925Z,76.79
2023-02-19T08:01:11.204Z,75.89
2023-02-19T08:03:38.598Z,76.06
2023-02-19T08:06:05.988Z,75.39
2023-02-19T08:08:32.399Z,75.15
2023-02-19T08:11:21.946Z,75.52
2023-02-19T08:13:50.074Z,76.03
2023-02-19T08:16:29.529Z,75.69
2023-02-19T08:19:00.033Z,75.16
2023-02-19T08:21:26.637Z,75.27
2023-02-19T08:23:52.978Z,74.93
2023-02-19T08:26:19.341Z,74.32
2023-02-19T08:28:45.770Z,74.76
2023-02-19T08:31:12.980Z,74.53
2023-02-19T08:33:39.816Z,74.18
2023-02-19T08:36:08.346Z,75.06
2023-02-19T08:38:36.296Z,75.41
2023-02-19T08:41:07.236Z,75.71
2023-02-19T08:43:33.642Z,75.65
2023-02-19T08:46:00.102Z,75.52
2023-02-19T08:48:26.527Z,76.58
2023-02-19T08:50:54.860Z,77.52
2023-02-19T08:53:21.569Z,78.71
2023-02-19T08:55:47.936Z,78.83
2023-02-19T08:58:14.272Z,78.75
2023-02-19T09:00:40.614Z,79.01
2023-02-19T09:03:06.971Z,80.16
2023-02-19T09:05:33.293Z,81.10
2023-02-19T09:07:59.617Z,81.29
2023-02-19T09:10:25.960Z,81.22
2023-02-19T09:12:52.361Z,80.84
2023-02-19T09:15:18.686Z,79.88
2023-02-19T09:17:45.054Z,80.13
2023-02-19T09:20:11.738Z,79.78
2023-02-19T09:22:38.082Z,79.68
2023-02-19T09:25:04.691Z,80.10
2023-02-19T09:27:32.180Z,79.71
2023-02-19T09:29:58.561Z,79.51
2023-02-19T09:32:25.022Z,80.16
2023-02-19T09:34:51.356Z,79.92
2023-02-19T09:37:17.925Z,79.82
2023-02-19T09:39:44.259Z,79.48
2023-02-19T09:42:20.508Z,78.73
2023-02-19T09:44:50.260Z,78.38
2023-02-19T09:47:22.621Z,77.59
2023-02-19T09:49:52.970Z,77.59
2023-02-19T09:52:38.581Z,77.62
2023-02-19T09:55:15.374Z,76.64
2023-02-19T09:57:43.415Z,76.00
2023-02-19T10:00:26.858Z,76.78
2023-02-19T10:02:57.866Z,77.22
2023-02-19T10:05:26.128Z,77.84
2023-02-19T10:07:54.242Z,77.51
2023-02-19T10:10:32.647Z,76.21
2023-02-19T10:13:29.187Z,76.46
2023-02-19T10:16:01.499Z,77.47
2023-02-19T10:18:43.049Z,76.96
2023-02-19T10:21:19.571Z,76.95
2023-02-19T10:23:50.376Z,76.74
2023-02-19T10:26:17.011Z,75.71
2023-02-19T10:28:43.326Z,76.10
2023-02-19T10:31:22.000Z,76.27
2023-02-19T10:34:00.164Z,76.07
2023-02-19T10:36:33.390Z,76.11
2023-02-19T10:39:02.939Z,76.37
2023-02-19T10:41:30.579Z,75.48
2023-02-19T10:44:14.050Z,74.84
2023-02-19T10:46:46.969Z,73.86
2023-02-19T10:49:31.647Z,74.32
2023-02-19T10:52:02.473Z,74.64
2023-02-19T10:54:34.608Z,74.39
2023-02-19T10:57:19.164Z,73.68
2023-02-19T10:59:57.434Z,73.46
2023-02-19T11:02:24.468Z,73.00
2023-02-19T11:05:09.156Z,73.03
2023-02-19T11:07:37.248Z,73.03
2023-02-19T11:10:05.384Z,73.44
2023-02-19T11:12:34.094Z,73.17
2023-02-19T11:15:18.154Z,72.54
2023-02-19T11:17:44.573Z,72.21
2023-02-19T11:20:17.684Z,72.31
2023-02-19T11:22:46.879Z,71.67
2023-02-19T11:25:13.135Z,71.24
2023-02-19T11:28:13.795Z,71.13
2023-02-19T11:30:45.605Z,71.32
2023-02-19T11:33:24.069Z,71.08
2023-02-19T11:35:53.866Z,71.20
2023-02-19T11:38:21.493Z,71.21
2023-02-19T11:41:21.957Z,70.77
2023-02-19T11:44:00.677Z,70.82
2023-02-19T11:46:46.754Z,70.63
2023-02-19T11:49:31.930Z,70.40
2023-02-19T11:52:19.478Z,70.35
2023-02-19T11:55:01.289Z,69.90
2023-02-19T11:57:51.472Z,70.39
2023-02-19T12:00:34.917Z,69.88
2023-02-19T12:03:19.998Z,69.98
2023-02-19T12:06:05.153Z,70.37
2023-02-19T12:08:49.764Z,69.36
2023-02-19T12:11:59.547Z,69.23
2023-02-19T12:14:43.666Z,68.64
2023-02-19T12:17:24.716Z,68.99
2023-02-19T12:20:10.446Z,69.06
2023-02-19T12:22:51.214Z,68.84
2023-02-19T12:25:41.788Z,67.99
2023-02-19T12:28:23.449Z,67.79
2023-02-19T12:30:59.484Z,67.27
2023-02-19T12:34:09.960Z,66.51
2023-02-19T12:37:02.193Z,66.75
2023-02-19T12:39:46.830Z,66.54
2023-02-19T12:42:41.086Z,66.76
2023-02-19T12:45:30.070Z,65.98
2023-02-19T12:48:03.533Z,65.81
2023-02-19T12:50:31.743Z,65.91
2023-02-19T12:53:05.275Z,65.39
2023-02-19T12:55:37.953Z,64.01
2023-02-19T12:58:10.373Z,63.92
2023-02-19T13:00:50.552Z,63.64
2023-02-19T13:03:24.411Z,63.53
2023-02-19T13:06:27.875Z,62.94
2023-02-19T13:09:06.620Z,62.49
2023-02-19T13:11:54.135Z,61.89
2023-02-19T13:14:33.094Z,63.08
2023-02-19T13:17:17.927Z,63.35
2023-02-19T13:19:48.343Z,63.00
2023-02-19T13:22:59.832Z,61.04
2023-02-19T13:25:44.120Z,59.98
2023-02-19T13:28:39.819Z,60.67
2023-02-19T13:31:34.630Z,60.24
2023-02-19T13:34:28.985Z,58.45
2023-02-19T13:36:56.103Z,58.55
2023-02-19T13:39:23.199Z,58.34
2023-02-19T13:41:57.329Z,59.83
2023-02-19T13:44:27.513Z,59.93
2023-02-19T13:46:54.115Z,59.32
2023-02-19T13:49:27.392Z,59.66
2023-02-19T13:52:24.094Z,59.57
2023-02-19T13:54:51.247Z,58.59
2023-02-19T13:57:23.561Z,61.23
2023-02-19T13:59:50.716Z,61.21
2023-02-19T14:02:20.369Z,60.66
2023-02-19T14:05:00.294Z,60.05
2023-02-19T14:07:26.627Z,59.96
2023-02-19T14:09:53.852Z,58.77
2023-02-19T14:12:22.547Z,57.56
2023-02-19T14:14:51.318Z,57.85
2023-02-19T14:17:23.729Z,56.47
2023-02-19T14:19:51.649Z,56.29
2023-02-19T14:22:46.251Z,57.43
2023-02-19T14:25:30.890Z,56.50
2023-02-19T14:28:16.909Z,55.97
2023-02-19T14:30:55.373Z,55.80
2023-02-19T14:33:25.405Z,56.53
2023-02-19T14:36:10.505Z,55.50
2023-02-19T14:38:42.703Z,56.58
2023-02-19T14:41:13.212Z,60.46
2023-02-19T14:43:40.433Z,58.39
2023-02-19T14:46:20.574Z,55.69
2023-02-19T14:48:49.511Z,55.54
2023-02-19T14:51:36.219Z,57.15
2023-02-19T14:54:16.001Z,56.92
2023-02-19T14:56:47.462Z,56.77
2023-02-19T14:59:13.829Z,57.60
2023-02-19T15:01:40.293Z,58.39
2023-02-19T15:04:20.019Z,57.40
2023-02-19T15:06:46.457Z,57.22
2023-02-19T15:09:13.460Z,55.86
2023-02-19T15:11:42.901Z,55.13
2023-02-19T15:14:20.966Z,55.28
2023-02-19T15:16:48.022Z,55.28
2023-02-19T15:19:17.061Z,55.57
2023-02-19T15:21:47.864Z,57.18
2023-02-19T15:24:16.703Z,56.96
2023-02-19T15:26:48.454Z,56.98
2023-02-19T15:29:17.746Z,56.42
2023-02-19T15:31:49.850Z,58.19
2023-02-19T15:34:31.039Z,58.12
2023-02-19T15:37:01.607Z,57.65
2023-02-19T15:39:36.361Z,58.20
2023-02-19T15:42:05.262Z,58.78
2023-02-19T15:44:58.162Z,58.26
2023-02-19T15:47:33.215Z,57.75
2023-02-19T15:50:09.202Z,58.11
2023-02-19T15:52:41.583Z,59.39
2023-02-19T15:55:35.918Z,58.12
2023-02-19T15:58:37.563Z,57.44
2023-02-19T16:01:12.638Z,56.74
2023-02-19T16:03:39.550Z,56.52
2023-02-19T16:06:15.191Z,58.98
2023-02-19T16:08:43.723Z,59.12
2023-02-19T16:11:21.923Z,58.13
2023-02-19T16:13:48.572Z,57.61
2023-02-19T16:16:30.780Z,56.63
2023-02-19T16:18:57.572Z,56.19
2023-02-19T16:21:26.864Z,57.01
2023-02-19T16:24:02.478Z,57.17
2023-02-19T16:26:29.141Z,57.66
2023-02-19T16:28:55.609Z,57.74
2023-02-19T16:31:23.597Z,58.50
2023-02-19T16:33:50.910Z,58.11
2023-02-19T16:36:45.926Z,58.84
2023-02-19T16:39:12.890Z,59.07
2023-02-19T16:41:39.382Z,58.19
2023-02-19T16:44:20.772Z,58.79
2023-02-19T16:46:49.081Z,59.11
2023-02-19T16:49:15.590Z,58.89
2023-02-19T16:51:44.005Z,59.25
2023-02-19T16:54:10.962Z,58.34
2023-02-19T16:56:37.648Z,59.52
2023-02-19T16:59:04.056Z,59.71
2023-02-19T17:01:30.859Z,59.54
2023-02-19T17:04:01.175Z,58.87
2023-02-19T17:06:27.583Z,58.85
2023-02-19T17:08:53.926Z,58.89
2023-02-19T17:11:20.522Z,58.48
2023-02-19T17:13:47.072Z,59.21
2023-02-19T17:16:19.704Z,59.89
2023-02-19T17:18:46.153Z,59.43
2023-02-19T17:21:18.489Z,58.85
2023-02-19T17:23:44.920Z,59.58
2023-02-19T17:26:14.559Z,59.28
2023-02-19T17:28:41.541Z,60.25
2023-02-19T17:31:10.402Z,60.14
2023-02-19T17:33:38.278Z,60.53
2023-02-19T17:36:04.962Z,60.13
2023-02-19T17:38:31.270Z,60.03
2023-02-19T17:40:57.602Z,59.95
2023-02-19T17:43:25.521Z,59.29
2023-02-19T17:45:51.983Z,60.20
2023-02-19T17:48:18.338Z,61.14
2023-02-19T17:50:44.663Z,59.91
2023-02-19T17:53:10.987Z,60.26
2023-02-19T17:55:37.374Z,60.77
2023-02-19T17:58:03.716Z,61.43
2023-02-19T18:00:32.091Z,61.54
2023-02-19T18:02:58.683Z,61.39
2023-02-19T18:05:25.010Z,60.82
2023-02-19T18:07:51.898Z,60.91
2023-02-19T18:10:20.068Z,60.76
2023-02-19T18:12:46.616Z,60.73
2023-02-19T18:15:21.996Z,59.80
2023-02-19T18:17:48.495Z,60.49
2023-02-19T18:20:17.083Z,61.20
2023-02-19T18:22:43.696Z,60.54
2023-02-19T18:25:10.730Z,59.92
2023-02-19T18:27:37.724Z,60.24
2023-02-19T18:30:05.152Z,59.93
2023-02-19T18:32:31.517Z,59.55
2023-02-19T18:34:59.966Z,59.26
2023-02-19T18:37:27.278Z,59.08
2023-02-19T18:39:53.987Z,58.86
2023-02-19T18:42:21.680Z,59.52
2023-02-19T18:44:49.128Z,58.98
2023-02-19T18:47:16.376Z,58.13
2023-02-19T18:49:50.366Z,58.59
2023-02-19T18:52:20.232Z,57.70
2023-02-19T18:54:47.859Z,59.38
2023-02-19T18:57:15.140Z,59.83
2023-02-19T18:59:42.680Z,59.11
2023-02-19T19:02:09.932Z,60.07
2023-02-19T19:04:38.109Z,59.59
2023-02-19T19:07:06.246Z,60.40
2023-02-19T19:09:33.313Z,59.27
2023-02-19T19:11:59.958Z,59.90
2023-02-19T19:14:26.636Z,60.09
2023-02-19T19:16:53.129Z,59.73
2023-02-19T19:19:19.816Z,60.27
2023-02-19T19:21:53.298Z,60.65
2023-02-19T19:24:21.241Z,60.84
2023-02-19T19:26:48.431Z,61.47
2023-02-19T19:29:16.070Z,61.93
2023-02-19T19:31:43.270Z,62.14
2023-02-19T19:34:11.157Z,62.36
2023-02-19T19:36:37.587Z,62.94
2023-02-19T19:39:04.336Z,63.06
2023-02-19T19:41:31.103Z,62.02
2023-02-19T19:43:57.572Z,61.37
2023-02-19T19:46:23.994Z,61.43
2023-02-19T19:48:52.717Z,60.35
2023-02-19T19:51:19.422Z,60.30
2023-02-19T19:53:49.691Z,60.32
2023-02-19T19:56:17.233Z,60.18
2023-02-19T19:58:43.606Z,59.41
2023-02-19T20:01:10.338Z,58.95
2023-02-19T20:03:37.917Z,59.78
2023-02-19T20:06:04.619Z,61.45
2023-02-19T20:08:30.993Z,61.81
2023-02-19T20:10:57.391Z,62.05
2023-02-19T20:13:24.676Z,62.61
2023-02-19T20:15:51.895Z,62.81
2023-02-19T20:18:18.677Z,62.10
2023-02-19T20:20:45.004Z,62.36
2023-02-19T20:23:11.351Z,62.39
2023-02-19T20:25:37.689Z,61.64
2023-02-19T20:28:04.228Z,60.83
2023-02-19T20:30:30.629Z,61.49
2023-02-19T20:32:56.997Z,61.21
2023-02-19T20:35:26.699Z,61.22
2023-02-19T20:37:53.019Z,61.47
2023-02-19T20:40:19.866Z,61.59
2023-02-19T20:42:46.250Z,61.78
2023-02-19T20:45:14.244Z,60.96
2023-02-19T20:47:40.585Z,63.70
2023-02-19T20:50:07.333Z,65.06
2023-02-19T20:52:33.677Z,65.71
2023-02-19T20:55:00.053Z,65.40
2023-02-19T20:57:26.440Z,64.73
2023-02-19T20:59:52.770Z,64.91
2023-02-19T21:02:22.982Z,65.56
2023-02-19T21:04:49.438Z,65.46
2023-02-19T21:07:16.402Z,66.06
2023-02-19T21:09:42.744Z,66.03
2023-02-19T21:12:09.332Z,66.06
2023-02-19T21:14:35.744Z,65.44
2023-02-19T21:17:02.117Z,65.72
2023-02-19T21:19:28.552Z,65.37
2023-02-19T21:21:54.903Z,65.78
2023-02-19T21:24:21.274Z,65.87
2023-02-19T21:26:47.625Z,65.30
2023-02-19T21:29:20.951Z,64.30
2023-02-19T21:31:50.352Z,63.85
2023-02-19T21:34:19.351Z,64.46
2023-02-19T21:36:46.187Z,64.22
2023-02-19T21:39:14.362Z,65.04
2023-02-19T21:41:40.822Z,65.16
2023-02-19T21:44:07.165Z,64.96
2023-02-19T21:46:33.621Z,66.06
2023-02-19T21:49:00.375Z,66.89
2023-02-19T21:51:38.586Z,66.64
2023-02-19T21:54:06.174Z,66.78
2023-02-19T21:56:36.115Z,66.08
2023-02-19T21:59:03.009Z,65.95
2023-02-19T22:01:32.186Z,66.24
2023-02-19T22:03:59.129Z,65.56
2023-02-19T22:06:29.174Z,66.20
2023-02-19T22:08:55.953Z,67.02
2023-02-19T22:11:22.321Z,67.14
2023-02-19T22:13:48.818Z,67.21
2023-02-19T22:16:15.727Z,66.67
2023-02-19T22:18:50.472Z,65.69
2023-02-19T22:21:17.340Z,65.82
2023-02-19T22:23:48.538Z,65.25
2023-02-19T22:26:22.677Z,65.61
2023-02-19T22:28:49.402Z,64.69
2023-02-19T22:31:17.732Z,64.67
2023-02-19T22:33:44.344Z,64.61
2023-02-19T22:36:36.831Z,64.81
2023-02-19T22:39:04.857Z,64.89
2023-02-19T22:41:31.211Z,64.90
2023-02-19T22:43:58.910Z,65.71
2023-02-19T22:46:28.436Z,65.84
2023-02-19T22:48:54.951Z,66.27
2023-02-19T22:51:23.360Z,66.42
2023-02-19T22:53:54.333Z,65.76
2023-02-19T22:56:22.853Z,65.27
2023-02-19T22:58:49.839Z,66.26
2023-02-19T23:01:16.656Z,66.83
2023-02-19T23:03:54.880Z,67.45
2023-02-19T23:06:24.834Z,67.08
2023-02-19T23:08:52.352Z,66.75
2023-02-19T23:11:24.741Z,66.56
2023-02-19T23:13:51.621Z,67.06
2023-02-19T23:16:18.145Z,66.65
2023-02-19T23:18:44.513Z,67.00
2023-02-19T23:21:11.243Z,66.85
2023-02-19T23:23:37.553Z,66.70
2023-02-19T23:26:05.082Z,66.39
2023-02-19T23:28:31.459Z,67.02
2023-02-19T23:30:57.990Z,67.64
2023-02-19T23:33:24.415Z,68.34
2023-02-19T23:35:50.743Z,68.36
2023-02-19T23:38:17.218Z,68.25
2023-02-19T23:40:43.640Z,68.52
2023-02-19T23:43:10.000Z,68.04
2023-02-19T23:45:36.348Z,67.32
2023-02-19T23:48:02.833Z,66.86
2023-02-19T23:50:29.198Z,66.62
2023-02-19T23:52:56.756Z,66.98
2023-02-19T23:55:23.173Z,66.51
2023-02-19T23:57:49.594Z,66.39
